< Typhoon 201320 2013 Season Typhoon 201322 >
Typhoon 201321 (WUTIP)
General InformationTrack Information on Google MapsDetailed Wind InformationForecast History on Google MapsAccess Analytics MapList of All Images || NewsDisaster Info.WeblogTrackbackTyphoon FrontTwiphoonTyphoon Now!Typhoon ImaginationDisaster Info. XMLResourceGoogle EarthGE AnimationAtom FeedGeoJSON
Detalied Best Track (Time Zone = UTC)
Year Month Day Hour Lat. Long. Pressure (hPa) Wind (kt) Class Image Chart
2013 9 25 18 14.8 118.4 1006 0 2 Image Chart
2013 9 26 00 14.7 117.6 1006 0 2 Image Chart
2013 9 26 06 14.5 117.9 1004 0 2 Image Chart
2013 9 26 12 15.1 118.1 1006 0 2 Image Chart
2013 9 26 18 15.6 117.8 1004 0 2 Image Chart
2013 9 27 00 16.2 117.4 1004 0 2 Image Chart
2013 9 27 06 16.8 116.3 1000 35 3 Image Chart
2013 9 27 12 16.8 115.3 1000 35 3 Image Chart
2013 9 27 18 16.6 114.7 994 40 3 Image Chart
2013 9 28 00 16.3 114.2 985 50 4 Image Chart
2013 9 28 06 16.7 114.0 975 60 4 Image Chart
2013 9 28 12 16.9 113.9 970 65 5 Image Chart
2013 9 28 18 16.8 113.4 970 65 5 Image Chart
2013 9 29 00 16.8 112.5 970 65 5 Image Chart
2013 9 29 06 16.7 111.8 965 65 5 Image Chart
2013 9 29 12 16.9 111.1 965 65 5 Image Chart
2013 9 29 18 16.8 110.1 965 65 5 Image Chart
2013 9 30 00 17.2 108.7 965 65 5 Image Chart
2013 9 30 06 17.5 107.5 970 65 5 Image Chart
2013 9 30 12 17.8 105.9 975 60 4 Image Chart
2013 9 30 18 17.9 103.8 994 40 3 Image Chart
2013 10 1 00 18.0 101.5 1006 0 2 Image Chart
Japan Meteorological Agency Best Track Data | Correction Date : 2013-10-28
< Typhoon 201320 2013 Season Typhoon 201322 >

Help